LSZB/BRN METAR and TAF weather

Enter ICAO airport designator
Station Type Date Time Source
LSZB METAR 2019/02/20 17:20 UTC NOAA

LSZB 201720Z 24004KT CAVOK 07/M00 Q1024 NOSIG


Station Type Date Time Source
LSZB Decoded METAR 2019/02/20 17:20 UTC NOAA

Bern / Belp , Switzerland (LSZB) 46-55N 007-30E
Feb 20, 2019 - 12:20 PM EST / 2019.02.20 1720 UTC
Wind: from the WSW (240 degrees) at 5 MPH (4 KT):0
Visibility: greater than 7 mile(s):0
Temperature: 44 F (7 C)
Dew Point: 32 F (0 C)
Relative Humidity: 60%
Pressure (altimeter): 30.24 in. Hg (1024 hPa)
ob: LSZB 201720Z 24004KT CAVOK 07/M00 Q1024 NOSIG
cycle: 17

Station Type Date Time Source
LSZB TAF 2014/12/22 20:03 UTC NOAA

TAF
AMD TAF
AMD LSZB 222054Z 2220/2224 CNL


Example: see airport list